Time;durP1;ratioP1;P1;durP2;ratioP2;P2;SDS_P1;SDS_P2;PMS_P1;PMS_P2;Temp;Humidity;BMP_temperature;BMP_pressure;BME280_temperature;BME280_humidity;BME280_pressure;Samples;Min_cycle;Max_cycle;Signal;HPM_P1;HPM_P2
2021/04/16 00:02:06;;;;;;;34.23;23.73;;;;;;;3.07;85.47;98966.02;2257895;79;21104;-78
2021/04/16 00:05:08;;;;;;;38.03;26.87;;;;;;;3.07;85.27;98962.16;2258014;79;21096;-78
2021/04/16 00:08:09;;;;;;;40.53;26.47;;;;;;;3.08;85.17;98959.17;2258063;79;21109;-78
2021/04/16 00:11:10;;;;;;;36.37;27.13;;;;;;;3.11;85.45;98960.59;2258150;79;21415;-77
2021/04/16 00:14:11;;;;;;;43.20;31.10;;;;;;;3.11;85.46;98958.01;2257925;79;21077;-78
2021/04/16 00:17:12;;;;;;;40.13;28.47;;;;;;;3.09;85.28;98948.03;2257965;79;21208;-78
2021/04/16 00:20:13;;;;;;;39.27;27.90;;;;;;;3.13;85.05;98944.36;2257850;79;21117;-78
2021/04/16 00:23:14;;;;;;;42.63;29.07;;;;;;;3.14;85.08;98944.84;2257810;79;21093;-78
2021/04/16 00:26:15;;;;;;;32.10;25.83;;;;;;;3.16;85.15;98944.90;2258111;79;21364;-78
2021/04/16 00:29:16;;;;;;;29.43;22.67;;;;;;;3.16;85.11;98943.20;2258253;79;21128;-77
2021/04/16 00:32:17;;;;;;;37.43;27.90;;;;;;;3.16;85.24;98944.48;2257874;79;21116;-78
2021/04/16 00:35:19;;;;;;;35.17;26.07;;;;;;;3.13;85.33;98944.36;2257778;79;21347;-78
2021/04/16 00:38:20;;;;;;;32.87;24.87;;;;;;;3.11;85.08;98942.13;2257889;79;21113;-78
2021/04/16 00:41:22;;;;;;;35.20;26.80;;;;;;;3.13;85.12;98939.20;2258042;78;21398;-78
2021/04/16 00:44:23;;;;;;;31.30;24.13;;;;;;;3.14;85.01;98931.94;2258652;79;21092;-78
2021/04/16 00:47:24;;;;;;;29.00;21.53;;;;;;;3.15;85.35;98941.84;2259189;79;21113;-78
2021/04/16 00:50:25;;;;;;;31.17;25.57;;;;;;;3.11;85.58;98930.52;2258326;79;21263;-79
2021/04/16 00:53:26;;;;;;;31.63;23.40;;;;;;;3.09;85.35;98929.98;2258941;79;21068;-79
2021/04/16 00:56:27;;;;;;;29.87;22.83;;;;;;;3.06;85.83;98928.16;2258375;79;21105;-78
2021/04/16 00:59:28;;;;;;;32.17;22.53;;;;;;;3.02;85.68;98927.55;2258513;79;21128;-79
2021/04/16 01:02:29;;;;;;;32.83;24.73;;;;;;;3.00;85.79;98928.30;2259127;79;21084;-79
2021/04/16 01:05:30;;;;;;;36.93;24.63;;;;;;;2.98;85.78;98925.66;2258756;79;21113;-78
2021/04/16 01:08:31;;;;;;;33.57;24.90;;;;;;;2.98;85.96;98924.37;2259169;78;21101;-79
2021/04/16 01:11:32;;;;;;;31.73;24.13;;;;;;;2.97;86.10;98921.72;2258743;79;21108;-78
2021/04/16 01:14:34;;;;;;;31.07;24.80;;;;;;;2.95;86.21;98935.84;2258690;78;21207;-78
2021/04/16 01:17:35;;;;;;;30.63;22.37;;;;;;;2.93;86.19;98931.43;2258577;79;21101;-78
2021/04/16 01:20:36;;;;;;;38.20;26.87;;;;;;;2.91;86.46;98930.08;2258182;79;21120;-77
2021/04/16 01:23:37;;;;;;;33.80;25.40;;;;;;;2.90;86.59;98934.77;2259268;79;21101;-79
2021/04/16 01:26:38;;;;;;;37.27;25.50;;;;;;;2.89;86.36;98926.55;2259215;79;21057;-78
2021/04/16 01:29:39;;;;;;;37.23;25.67;;;;;;;2.89;86.35;98927.84;2258951;79;21152;-79
2021/04/16 01:32:40;;;;;;;38.57;27.50;;;;;;;2.89;86.38;98930.42;2259926;79;21109;-79
2021/04/16 01:35:41;;;;;;;35.07;26.27;;;;;;;2.86;86.70;98923.44;2259159;79;21093;-79
2021/04/16 01:38:42;;;;;;;37.10;27.07;;;;;;;2.86;86.40;98915.70;2259335;79;21223;-79
2021/04/16 01:41:43;;;;;;;36.43;25.07;;;;;;;2.88;86.53;98923.50;2259135;79;21211;-79
2021/04/16 01:44:44;;;;;;;34.27;24.50;;;;;;;2.88;86.38;98920.52;2258936;79;21111;-79
2021/04/16 01:47:45;;;;;;;38.07;25.73;;;;;;;2.89;86.72;98923.97;2258952;79;21100;-79
2021/04/16 01:50:46;;;;;;;34.47;25.17;;;;;;;2.86;86.77;98921.27;2259095;79;21140;-79
2021/04/16 01:53:47;;;;;;;41.60;27.17;;;;;;;2.86;86.67;98925.13;2259115;79;21065;-79
2021/04/16 01:56:48;;;;;;;36.10;26.17;;;;;;;2.84;86.85;98914.75;2259259;79;21105;-79
2021/04/16 01:59:49;;;;;;;32.47;24.77;;;;;;;2.83;86.85;98912.11;2258778;79;21065;-78
2021/04/16 02:02:50;;;;;;;37.53;25.50;;;;;;;2.85;86.64;98906.61;2259224;79;21216;-79
2021/04/16 02:05:52;;;;;;;39.97;26.80;;;;;;;2.85;86.79;98899.76;2259544;79;21077;-80
2021/04/16 02:08:53;;;;;;;31.37;22.53;;;;;;;2.87;86.75;98900.70;2259153;79;21493;-79
2021/04/16 02:11:54;;;;;;;33.77;24.87;;;;;;;2.88;86.75;98900.30;2259061;79;21121;-79
2021/04/16 02:14:55;;;;;;;33.80;23.53;;;;;;;2.86;86.95;98896.36;2259110;79;21104;-79
2021/04/16 02:17:56;;;;;;;32.40;23.90;;;;;;;2.86;86.58;98895.48;2258872;79;21120;-79
2021/04/16 02:20:57;;;;;;;31.93;23.37;;;;;;;2.85;86.58;98894.60;2245562;79;21157;-79
2021/04/16 02:23:58;;;;;;;31.07;23.60;;;;;;;2.86;86.65;98892.91;2227294;80;21094;-78
2021/04/16 02:26:59;;;;;;;29.63;23.77;;;;;;;2.85;86.67;98889.45;2227246;80;21101;-78
2021/04/16 02:30:00;;;;;;;31.10;22.33;;;;;;;2.85;86.67;98895.89;2227637;80;21170;-79
2021/04/16 02:33:01;;;;;;;24.63;19.40;;;;;;;2.88;86.45;98892.56;2227887;80;21332;-81
2021/04/16 02:36:02;;;;;;;30.10;22.23;;;;;;;2.88;86.44;98893.44;2227353;80;21110;-79
2021/04/16 02:39:03;;;;;;;26.70;22.20;;;;;;;2.87;86.66;98903.69;2226988;80;21337;-78
2021/04/16 02:42:04;;;;;;;27.97;20.83;;;;;;;2.86;86.40;98889.92;2227610;79;21360;-80
2021/04/16 02:45:06;;;;;;;27.03;21.23;;;;;;;2.87;86.46;98893.38;2227891;80;21125;-80
2021/04/16 02:48:07;;;;;;;31.60;23.47;;;;;;;2.86;86.29;98894.19;2227818;79;21078;-80
2021/04/16 02:51:08;;;;;;;26.27;21.57;;;;;;;2.87;86.44;98892.97;2227888;80;21165;-80
2021/04/16 02:54:09;;;;;;;28.50;21.97;;;;;;;2.86;86.32;98889.92;2227457;79;21114;-80
2021/04/16 02:57:10;;;;;;;25.97;19.00;;;;;;;2.84;86.65;98895.42;2228044;80;21387;-80
2021/04/16 03:00:11;;;;;;;27.10;21.23;;;;;;;2.83;86.54;98896.23;2227632;80;21090;-81
2021/04/16 03:03:12;;;;;;;30.27;23.03;;;;;;;2.81;86.55;98884.98;2227721;80;21074;-80
2021/04/16 03:06:13;;;;;;;33.80;25.47;;;;;;;2.80;86.53;98896.10;2227723;80;21105;-80
2021/04/16 03:09:14;;;;;;;32.73;24.07;;;;;;;2.82;86.52;98901.33;2227654;80;21220;-79
2021/04/16 03:12:15;;;;;;;29.03;22.43;;;;;;;2.82;86.57;98896.17;2227866;80;21078;-79
2021/04/16 03:15:16;;;;;;;32.60;22.17;;;;;;;2.80;86.73;98896.52;2228016;80;21105;-80
2021/04/16 03:18:17;;;;;;;33.07;22.43;;;;;;;2.79;86.57;98895.63;2227920;80;21066;-80
2021/04/16 03:21:18;;;;;;;32.07;23.97;;;;;;;2.80;86.63;98882.33;2228098;79;21137;-81
2021/04/16 03:24:20;;;;;;;32.13;23.53;;;;;;;2.82;86.53;98885.45;2227584;80;21086;-81
2021/04/16 03:27:21;;;;;;;38.57;24.93;;;;;;;2.83;86.68;98891.48;2227771;80;21070;-79
2021/04/16 03:30:22;;;;;;;33.97;24.40;;;;;;;2.83;86.72;98887.62;2227548;80;21149;-79
2021/04/16 03:33:23;;;;;;;34.90;22.43;;;;;;;2.82;86.59;98881.98;2227570;80;21094;-80
2021/04/16 03:36:24;;;;;;;35.53;25.63;;;;;;;2.83;86.68;98886.33;2227477;80;21100;-80
2021/04/16 03:39:25;;;;;;;33.97;22.87;;;;;;;2.81;86.62;98886.27;2227381;80;21090;-80
2021/04/16 03:42:26;;;;;;;40.77;27.33;;;;;;;2.80;86.77;98881.92;2227410;80;21090;-80
2021/04/16 03:45:28;;;;;;;45.27;30.10;;;;;;;2.79;86.72;98890.88;2227433;80;21106;-80
2021/04/16 03:48:28;;;;;;;35.63;25.27;;;;;;;2.76;86.92;98895.91;2227213;80;21098;-79
2021/04/16 03:51:29;;;;;;;36.30;25.33;;;;;;;2.75;86.86;98897.60;2226675;80;21384;-82
2021/04/16 03:54:31;;;;;;;33.57;23.03;;;;;;;2.74;86.70;98889.80;2227358;80;21107;-80
2021/04/16 03:57:32;;;;;;;32.70;22.80;;;;;;;2.73;86.81;98886.75;2227412;79;21371;-80
2021/04/16 04:00:33;;;;;;;37.17;23.57;;;;;;;2.74;86.83;98893.67;2227404;80;21078;-79
2021/04/16 04:03:34;;;;;;;36.20;24.47;;;;;;;2.71;86.87;98889.67;2227585;79;21094;-79
2021/04/16 04:06:35;;;;;;;36.43;23.43;;;;;;;2.71;86.82;98897.41;2227426;80;21102;-79
2021/04/16 04:09:36;;;;;;;32.00;20.67;;;;;;;2.70;86.80;98894.35;2227518;80;21400;-81
2021/04/16 04:12:38;;;;;;;35.13;23.77;;;;;;;2.72;86.87;98896.18;2227386;80;21105;-81
2021/04/16 04:15:39;;;;;;;30.67;22.70;;;;;;;2.72;86.75;98896.59;2227575;80;21114;-80
2021/04/16 04:18:40;;;;;;;33.30;23.30;;;;;;;2.73;86.65;98906.08;2226948;80;21119;-79
2021/04/16 04:21:41;;;;;;;33.47;21.80;;;;;;;2.74;86.74;98900.11;2242577;79;21438;-80
2021/04/16 04:24:42;;;;;;;33.77;23.10;;;;;;;2.74;86.71;98902.69;2258472;79;21215;-79
2021/04/16 04:27:43;;;;;;;29.20;19.87;;;;;;;2.74;86.81;98902.28;2259040;79;21236;-81
2021/04/16 04:30:44;;;;;;;35.43;23.13;;;;;;;2.74;86.68;98903.98;2258979;79;21152;-79
2021/04/16 04:33:45;;;;;;;32.67;22.40;;;;;;;2.77;86.57;98905.40;2259070;79;21117;-81
2021/04/16 04:36:46;;;;;;;34.57;21.53;;;;;;;2.75;86.79;98905.34;2259220;79;21085;-81
2021/04/16 04:39:47;;;;;;;34.10;22.07;;;;;;;2.74;86.82;98900.11;2258824;79;21127;-81
2021/04/16 04:42:48;;;;;;;37.83;25.43;;;;;;;2.73;86.92;98904.80;2259045;79;21109;-81
2021/04/16 04:45:49;;;;;;;36.67;23.93;;;;;;;2.72;87.13;98904.32;2259027;79;21227;-80
2021/04/16 04:48:50;;;;;;;33.80;22.50;;;;;;;2.72;86.90;98899.16;2258898;79;21131;-80
2021/04/16 04:51:51;;;;;;;32.00;21.83;;;;;;;2.76;86.78;98901.06;2258653;79;21140;-80
2021/04/16 04:54:55;;;;;;;37.37;23.63;;;;;;;2.79;87.01;98896.03;2258265;78;21109;-80
2021/04/16 04:57:57;;;;;;;40.40;23.53;;;;;;;2.79;86.88;98891.77;2258618;79;21124;-79
2021/04/16 05:00:58;;;;;;;31.73;20.33;;;;;;;2.82;86.61;98893.18;2258624;79;21092;-81
2021/04/16 05:03:59;;;;;;;29.33;20.27;;;;;;;2.81;86.67;98894.00;2258821;79;21131;-82
2021/04/16 05:07:00;;;;;;;35.37;21.20;;;;;;;2.79;86.72;98885.73;2258590;79;21128;-80
2021/04/16 05:10:02;;;;;;;30.83;20.07;;;;;;;2.82;86.79;98884.56;2258566;79;21116;-79
2021/04/16 05:13:03;;;;;;;34.17;21.70;;;;;;;2.82;86.74;98887.14;2258987;79;21216;-81
2021/04/16 05:16:04;;;;;;;33.43;20.93;;;;;;;2.80;86.94;98882.33;2258703;79;21359;-80
2021/04/16 05:19:06;;;;;;;44.80;23.60;;;;;;;2.81;86.84;98882.39;2258454;78;21125;-79
2021/04/16 05:22:08;;;;;;;38.13;23.20;;;;;;;2.86;86.80;98879.61;2258724;78;21426;-80
2021/04/16 05:25:09;;;;;;;37.67;24.17;;;;;;;2.88;86.84;98878.38;2258673;79;21089;-80
2021/04/16 05:28:10;;;;;;;34.50;21.00;;;;;;;2.88;86.82;98880.96;2258743;79;21073;-79
2021/04/16 05:31:11;;;;;;;32.80;20.80;;;;;;;2.92;86.76;98885.84;2258908;79;21132;-81
2021/04/16 05:34:12;;;;;;;31.33;20.07;;;;;;;2.93;86.74;98884.61;2258799;79;21139;-80
2021/04/16 05:37:13;;;;;;;35.07;21.67;;;;;;;2.93;86.83;98885.02;2258757;79;21215;-80
2021/04/16 05:40:14;;;;;;;34.30;22.83;;;;;;;2.91;86.68;98881.09;2258989;78;21099;-80
2021/04/16 05:43:15;;;;;;;31.90;21.50;;;;;;;2.94;87.05;98880.34;2229474;79;21124;-80
2021/04/16 05:46:16;;;;;;;27.53;19.10;;;;;;;2.97;86.88;98880.06;2258909;79;21061;-80
2021/04/16 05:49:17;;;;;;;37.87;23.93;;;;;;;2.98;86.86;98877.07;2258611;79;21089;-79
2021/04/16 05:52:18;;;;;;;28.57;21.70;;;;;;;3.01;86.80;98875.91;2258715;79;21144;-82
2021/04/16 05:55:19;;;;;;;28.90;21.13;;;;;;;3.06;86.89;98873.11;2258958;79;21061;-80
2021/04/16 05:58:22;;;;;;;29.03;20.70;;;;;;;3.08;86.77;98868.49;2258951;79;21354;-79
2021/04/16 06:01:23;;;;;;;27.50;20.67;;;;;;;3.12;86.75;98869.50;2258985;79;21235;-82
2021/04/16 06:04:24;;;;;;;27.50;20.47;;;;;;;3.14;86.51;98867.45;2258792;79;21108;-80
2021/04/16 06:07:25;;;;;;;28.90;21.73;;;;;;;3.18;86.56;98857.73;2259071;79;21093;-81
2021/04/16 06:10:26;;;;;;;29.60;21.37;;;;;;;3.20;86.56;98861.26;2258983;79;21135;-80
2021/04/16 06:13:27;;;;;;;27.47;21.57;;;;;;;3.20;86.59;98866.83;2258940;79;21065;-79
2021/04/16 06:16:28;;;;;;;26.17;19.13;;;;;;;3.21;86.62;98864.72;2258598;79;21104;-78
2021/04/16 06:19:30;;;;;;;27.90;21.80;;;;;;;3.22;86.71;98862.61;2258552;78;21132;-80
2021/04/16 06:22:31;;;;;;;30.83;22.40;;;;;;;3.22;86.78;98872.93;2258548;78;21132;-79
2021/04/16 06:25:34;;;;;;;28.27;21.20;;;;;;;3.26;86.62;98867.48;2257662;79;21069;-80
2021/04/16 06:28:35;;;;;;;28.57;21.00;;;;;;;3.29;86.57;98865.91;2258275;79;21328;-79
2021/04/16 06:31:36;;;;;;;29.07;23.10;;;;;;;3.30;86.59;98874.53;2258583;79;21105;-79
2021/04/16 06:34:37;;;;;;;30.97;21.57;;;;;;;3.28;86.82;98876.17;2258541;79;21100;-80
2021/04/16 06:37:39;;;;;;;30.83;21.50;;;;;;;3.32;86.90;98870.31;2258225;79;21089;-81
2021/04/16 06:40:40;;;;;;;31.70;22.70;;;;;;;3.35;86.71;98878.18;2258531;79;21105;-80
2021/04/16 06:43:42;;;;;;;27.10;20.70;;;;;;;3.36;86.79;98874.78;2259253;79;21073;-80
2021/04/16 06:46:46;;;;;;;28.03;21.23;;;;;;;3.37;86.72;98873.55;2258794;79;21105;-81
2021/04/16 06:49:47;;;;;;;25.92;20.05;;;;;;;3.38;86.66;98875.31;2258785;79;21136;-79
2021/04/16 06:52:48;;;;;;;27.73;21.50;;;;;;;3.38;86.73;98881.77;2258885;79;21108;-79
2021/04/16 06:55:49;;;;;;;25.83;18.13;;;;;;;3.40;86.73;98880.13;2258594;79;21084;-80
2021/04/16 06:58:50;;;;;;;32.03;24.33;;;;;;;3.42;86.71;98880.19;2258991;79;21077;-81
2021/04/16 07:01:52;;;;;;;31.50;24.30;;;;;;;3.42;86.75;98880.19;2258616;79;21132;-80
2021/04/16 07:04:53;;;;;;;32.77;23.90;;;;;;;3.44;86.82;98878.14;2258671;78;21101;-80
2021/04/16 07:07:54;;;;;;;27.20;20.97;;;;;;;3.48;86.90;98885.63;2258530;79;21101;-80
2021/04/16 07:10:55;;;;;;;28.43;21.93;;;;;;;3.50;86.74;98883.58;2258547;79;21175;-79
2021/04/16 07:13:56;;;;;;;28.13;21.90;;;;;;;3.53;86.72;98879.36;2258459;79;21089;-80
2021/04/16 07:16:57;;;;;;;28.60;21.80;;;;;;;3.56;86.81;98881.66;2258538;79;21096;-79
2021/04/16 07:19:59;;;;;;;27.07;21.60;;;;;;;3.56;86.60;98879.08;2258690;78;21160;-80
2021/04/16 07:23:01;;;;;;;29.17;22.27;;;;;;;3.55;86.84;98885.05;2258358;79;21124;-79
2021/04/16 07:26:02;;;;;;;30.23;22.03;;;;;;;3.55;86.75;98886.34;2258774;79;21069;-80
2021/04/16 07:29:03;;;;;;;30.47;22.00;;;;;;;3.57;86.72;98886.41;2258095;79;21085;-79
2021/04/16 07:32:04;;;;;;;34.87;24.93;;;;;;;3.61;86.97;98888.29;2258699;78;21140;-81
2021/04/16 07:35:05;;;;;;;29.37;20.83;;;;;;;3.61;86.72;98886.59;2258572;79;21097;-79
2021/04/16 07:38:06;;;;;;;33.33;24.67;;;;;;;3.65;86.82;98894.05;2258909;79;21089;-80
2021/04/16 07:41:07;;;;;;;32.93;24.23;;;;;;;3.68;86.58;98889.88;2258776;79;21100;-80
2021/04/16 07:44:08;;;;;;;36.83;25.20;;;;;;;3.69;86.74;98882.61;2258564;79;21117;-81
2021/04/16 07:47:09;;;;;;;31.30;22.30;;;;;;;3.70;86.66;98885.66;2258791;79;21395;-81
2021/04/16 07:50:11;;;;;;;38.03;25.70;;;;;;;3.73;86.72;98888.77;2258717;79;21136;-79
2021/04/16 07:53:12;;;;;;;37.20;24.70;;;;;;;3.73;86.68;98884.48;2258797;78;21215;-80
2021/04/16 07:56:13;;;;;;;36.17;25.97;;;;;;;3.79;86.60;98882.55;2258771;79;21081;-80
2021/04/16 07:59:14;;;;;;;32.40;24.83;;;;;;;3.86;86.55;98894.00;2258255;79;21124;-79
2021/04/16 08:02:15;;;;;;;26.80;21.23;;;;;;;3.94;86.45;98887.43;2258798;79;21113;-80
2021/04/16 08:05:16;;;;;;;30.53;22.50;;;;;;;4.00;86.26;98887.67;2258433;79;21386;-80
2021/04/16 08:08:17;;;;;;;29.43;22.80;;;;;;;4.06;86.23;98884.02;2258803;79;21145;-80
2021/04/16 08:11:21;;;;;;;26.67;22.37;;;;;;;4.09;86.08;98883.73;2258222;79;21137;-80
2021/04/16 08:14:21;;;;;;;27.60;22.47;;;;;;;4.13;86.00;98883.44;2258532;79;21109;-79
2021/04/16 08:17:22;;;;;;;25.63;21.53;;;;;;;4.18;86.08;98893.53;2258721;79;21386;-80
2021/04/16 08:20:23;;;;;;;27.37;22.63;;;;;;;4.19;86.06;98891.83;2258517;79;21132;-79
2021/04/16 08:23:25;;;;;;;27.80;21.50;;;;;;;4.21;85.93;98885.89;2235897;79;21138;-80
2021/04/16 08:26:26;;;;;;;34.93;25.73;;;;;;;4.27;86.07;98885.24;2226480;80;21058;-79
2021/04/16 08:29:27;;;;;;;23.70;18.80;;;;;;;4.35;85.89;98891.19;2226690;80;21097;-79
2021/04/16 08:32:28;;;;;;;32.10;24.27;;;;;;;4.44;85.63;98891.53;2227063;80;21133;-79
2021/04/16 08:35:29;;;;;;;22.73;18.33;;;;;;;4.51;85.36;98889.17;2226767;80;21097;-80
2021/04/16 08:38:30;;;;;;;22.03;17.60;;;;;;;4.57;85.01;98891.56;2227208;80;21375;-79
2021/04/16 08:41:31;;;;;;;20.20;18.00;;;;;;;4.60;84.78;98884.33;2226941;80;21114;-79
2021/04/16 08:44:33;;;;;;;16.40;14.70;;;;;;;4.68;84.89;98891.95;2226729;80;21106;-80
2021/04/16 08:47:34;;;;;;;17.67;15.77;;;;;;;4.63;84.67;98899.95;2226676;80;21101;-79
2021/04/16 08:50:35;;;;;;;15.33;13.73;;;;;;;4.63;84.67;98899.95;2226683;80;21142;-79
2021/04/16 08:53:36;;;;;;;19.50;15.83;;;;;;;4.62;85.01;98886.55;2226741;80;21136;-79
2021/04/16 08:56:37;;;;;;;17.00;15.27;;;;;;;4.68;84.95;98891.95;2226538;80;21098;-79
2021/04/16 08:59:38;;;;;;;19.60;16.20;;;;;;;4.69;84.43;98880.78;2226877;79;21375;-78
2021/04/16 09:02:39;;;;;;;24.57;18.50;;;;;;;4.75;84.70;98891.34;2226877;80;21066;-79
2021/04/16 09:05:40;;;;;;;25.00;18.43;;;;;;;4.86;84.41;98888.71;2226435;80;21109;-79
2021/04/16 09:08:42;;;;;;;16.17;14.37;;;;;;;4.92;84.03;98891.52;2226749;79;21245;-78
2021/04/16 09:11:43;;;;;;;20.77;14.87;;;;;;;5.04;83.54;98880.70;2226908;80;21444;-78
2021/04/16 09:14:45;;;;;;;15.87;11.63;;;;;;;5.04;83.54;98880.70;2226955;80;21105;-78
2021/04/16 09:17:46;;;;;;;16.03;13.07;;;;;;;5.01;83.29;98888.36;2226604;80;21094;-79
2021/04/16 09:20:47;;;;;;;13.43;12.03;;;;;;;5.02;83.01;98887.13;2227051;79;21101;-79
2021/04/16 09:23:48;;;;;;;12.73;11.43;;;;;;;4.98;83.24;98889.55;2250293;79;21128;-79
2021/04/16 09:26:50;;;;;;;12.27;10.47;;;;;;;4.95;83.21;98889.03;2257792;79;21076;-80
2021/04/16 09:29:51;;;;;;;11.90;10.70;;;;;;;4.90;83.53;98903.92;2258347;79;23122;-81
2021/04/16 09:32:53;;;;;;;11.63;10.43;;;;;;;4.83;83.55;98895.48;2258387;78;21105;-79
2021/04/16 09:35:54;;;;;;;14.37;11.53;;;;;;;4.85;83.56;98896.01;2258098;79;21101;-79
2021/04/16 09:38:58;;;;;;;12.40;10.43;;;;;;;4.93;82.94;98901.03;2258468;78;21085;-78
2021/04/16 09:41:59;;;;;;;14.00;11.27;;;;;;;5.06;82.60;98898.45;2258354;79;21096;-80
2021/04/16 09:45:00;;;;;;;9.67;8.67;;;;;;;5.12;83.03;98893.08;2258719;78;21073;-80
2021/04/16 09:48:04;;;;;;;10.40;9.30;;;;;;;5.08;81.94;98899.39;2257959;78;21089;-79
2021/04/16 09:51:04;;;;;;;13.50;10.67;;;;;;;5.01;81.68;98900.88;2258137;79;21156;-79
2021/04/16 09:54:05;;;;;;;12.20;10.70;;;;;;;4.98;82.50;98896.90;2258217;79;21097;-79
2021/04/16 09:57:08;;;;;;;15.37;10.97;;;;;;;5.09;82.59;98890.38;2258215;79;21399;-79
2021/04/16 10:00:09;;;;;;;12.13;8.90;;;;;;;5.26;82.15;98900.45;2258137;79;21096;-79
2021/04/16 10:03:10;;;;;;;12.50;10.40;;;;;;;5.27;81.92;98889.28;2258040;79;21211;-79
2021/04/16 10:06:12;;;;;;;15.40;11.73;;;;;;;5.23;82.20;98896.47;2258192;79;21391;-79
2021/04/16 10:09:13;;;;;;;12.80;10.23;;;;;;;5.17;81.59;98904.00;2258061;79;21219;-78
2021/04/16 10:12:15;;;;;;;15.70;10.23;;;;;;;5.18;81.49;98899.28;2258440;79;21101;-80
2021/04/16 10:15:16;;;;;;;15.77;11.40;;;;;;;5.15;81.11;98902.65;2258284;78;21108;-79
2021/04/16 10:18:17;;;;;;;11.63;10.10;;;;;;;5.11;81.77;98904.66;2258160;79;21136;-79
2021/04/16 10:21:20;;;;;;;14.90;10.77;;;;;;;5.08;81.48;98903.27;2258284;79;21141;-79
2021/04/16 12:39:35;;;;;;;21.37;18.23;;;;;;;4.43;83.26;98942.76;2097174;85;21153;-79
2021/04/16 12:42:36;;;;;;;22.70;19.03;;;;;;;4.43;83.27;98942.76;2097500;85;21118;-80
2021/04/16 12:45:37;;;;;;;21.53;19.23;;;;;;;4.47;83.56;98945.05;2097692;85;21133;-80
2021/04/16 12:48:38;;;;;;;20.03;17.80;;;;;;;4.51;83.31;98939.16;2097236;85;21156;-81
2021/04/16 12:51:39;;;;;;;25.70;21.13;;;;;;;4.54;83.10;98940.98;2097138;85;21427;-81
2021/04/16 12:54:40;;;;;;;28.47;23.33;;;;;;;4.52;83.40;98942.63;2096824;85;21153;-79
2021/04/16 12:57:42;;;;;;;27.70;21.10;;;;;;;4.50;83.55;98946.86;2097644;85;21146;-80
2021/04/16 13:00:44;;;;;;;21.83;18.77;;;;;;;4.54;83.60;98946.16;2096956;85;21171;-81
2021/04/16 13:03:49;;;;;;;22.67;17.53;;;;;;;4.54;83.19;98948.33;2230215;80;21447;-79
2021/04/16 13:06:48;;;;;;;21.13;14.97;;;;;;;4.50;83.15;98954.62;2236679;80;21427;-80
2021/04/16 13:09:49;;;;;;;24.93;17.70;;;;;;;4.43;83.34;98950.51;2237262;80;21092;-81
2021/04/16 13:12:50;;;;;;;21.67;16.07;;;;;;;4.40;83.63;98944.34;2237230;80;21247;-80
2021/04/16 13:15:52;;;;;;;21.13;16.43;;;;;;;4.36;83.88;98941.17;2237332;80;21129;-79
2021/04/16 13:18:53;;;;;;;23.60;17.47;;;;;;;4.31;84.03;98942.27;2237617;80;21118;-81
2021/04/16 13:21:54;;;;;;;23.93;18.33;;;;;;;4.27;85.63;98942.97;2237963;80;21137;-80
2021/04/16 13:24:55;;;;;;;20.67;17.23;;;;;;;4.31;84.54;98938.39;2254740;79;21391;-80
2021/04/16 13:27:56;;;;;;;25.77;19.00;;;;;;;4.35;84.27;98942.00;2258654;79;21092;-80
2021/04/16 13:30:57;;;;;;;23.63;19.30;;;;;;;4.32;84.30;98944.44;2258557;79;21144;-80
2021/04/16 13:33:58;;;;;;;23.60;20.40;;;;;;;4.24;84.75;98945.44;2259152;79;21211;-81
2021/04/16 13:36:59;;;;;;;26.93;22.33;;;;;;;4.21;84.80;98940.16;2258887;79;21366;-80
2021/04/16 13:40:00;;;;;;;29.20;21.80;;;;;;;4.20;84.99;98940.97;2228287;79;21132;-78
2021/04/16 13:43:01;;;;;;;22.73;19.97;;;;;;;4.20;84.86;98943.56;2258734;79;21089;-79
2021/04/16 13:46:02;;;;;;;23.20;20.70;;;;;;;4.20;84.79;98949.13;2258972;79;21400;-81
2021/04/16 13:49:03;;;;;;;25.10;19.83;;;;;;;4.19;84.79;98947.38;2258604;79;21110;-81
2021/04/16 13:52:04;;;;;;;26.10;20.77;;;;;;;4.18;85.19;98962.00;2258572;79;21136;-80
2021/04/16 13:55:05;;;;;;;32.97;22.60;;;;;;;4.17;85.02;98960.23;2258550;79;21073;-79
2021/04/16 13:58:06;;;;;;;28.30;22.87;;;;;;;4.21;84.97;98954.36;2258682;78;21104;-80
2021/04/16 14:01:07;;;;;;;22.63;20.07;;;;;;;4.26;85.02;98955.83;2258827;79;21231;-81
2021/04/16 14:04:08;;;;;;;25.80;20.83;;;;;;;4.23;84.83;98955.30;2259078;79;21132;-80
2021/04/16 14:07:09;;;;;;;19.17;17.13;;;;;;;4.23;84.96;98952.72;2259323;79;21232;-80
2021/04/16 14:10:10;;;;;;;21.73;19.10;;;;;;;4.22;84.79;98952.66;2258601;79;21152;-81
2021/04/16 14:13:11;;;;;;;20.60;18.40;;;;;;;4.20;84.89;98955.19;2258862;79;21088;-79
2021/04/16 14:16:12;;;;;;;19.93;17.87;;;;;;;4.19;84.83;98947.38;2258812;79;21065;-80
2021/04/16 14:19:14;;;;;;;20.60;17.53;;;;;;;4.21;84.90;98954.77;2258644;79;21390;-80
2021/04/16 14:22:15;;;;;;;19.13;14.63;;;;;;;4.24;84.48;98957.47;2258884;79;21133;-80
2021/04/16 14:25:16;;;;;;;16.87;15.07;;;;;;;4.24;84.42;98953.59;2258420;79;21101;-80
2021/04/16 14:28:17;;;;;;;15.53;13.77;;;;;;;4.21;84.41;98965.11;2258527;79;21405;-79
2021/04/16 14:31:18;;;;;;;15.97;14.30;;;;;;;4.16;84.26;98955.48;2258504;79;21145;-81
2021/04/16 14:34:19;;;;;;;16.00;14.27;;;;;;;4.17;84.51;98962.81;2258653;79;21395;-80
2021/04/16 14:37:20;;;;;;;16.10;13.80;;;;;;;4.14;84.02;98963.58;2258924;78;21085;-80
2021/04/16 14:40:21;;;;;;;21.60;15.20;;;;;;;4.10;84.51;98965.98;2258412;79;21065;-80
2021/04/16 14:43:22;;;;;;;18.60;16.80;;;;;;;4.04;84.57;98973.08;2258436;79;21374;-80
2021/04/16 14:46:23;;;;;;;17.13;14.40;;;;;;;4.04;84.86;98980.83;2258698;79;21085;-80
2021/04/16 14:49:27;;;;;;;14.63;13.13;;;;;;;4.05;84.75;98976.55;2258595;79;21093;-79
2021/04/16 14:52:27;;;;;;;15.23;13.67;;;;;;;4.04;84.61;98980.83;2258279;79;21121;-79
2021/04/16 14:55:28;;;;;;;17.70;15.67;;;;;;;4.05;84.80;98980.42;2258593;79;21065;-81
2021/04/16 14:58:30;;;;;;;15.33;13.73;;;;;;;4.07;84.69;98978.78;2258670;78;21105;-81
2021/04/16 15:01:31;;;;;;;17.40;14.83;;;;;;;4.07;84.76;98986.53;2258694;78;21116;-80
2021/04/16 15:04:32;;;;;;;17.07;14.40;;;;;;;4.05;84.71;98982.59;2258748;79;21109;-79
2021/04/16 15:07:33;;;;;;;14.57;12.20;;;;;;;4.06;84.71;98988.64;2258330;79;21085;-79
2021/04/16 15:10:34;;;;;;;13.10;11.63;;;;;;;4.05;84.64;98996.80;2258758;79;21140;-81
2021/04/16 15:13:35;;;;;;;13.23;11.30;;;;;;;4.02;84.44;98994.09;2258637;79;21065;-80
2021/04/16 15:16:36;;;;;;;13.00;11.60;;;;;;;4.04;84.45;98991.58;2258631;79;21085;-79
2021/04/16 15:19:37;;;;;;;17.03;13.80;;;;;;;4.02;84.57;98990.63;2258488;79;21104;-81
2021/04/16 15:22:38;;;;;;;15.93;13.13;;;;;;;3.99;84.76;98989.22;2258532;79;21121;-79
2021/04/16 15:25:40;;;;;;;19.57;15.30;;;;;;;3.96;84.99;98988.69;2230308;79;21404;-80
2021/04/16 15:28:41;;;;;;;18.80;13.87;;;;;;;3.96;84.21;98987.80;2227216;80;21098;-79
2021/04/16 15:31:42;;;;;;;22.50;16.87;;;;;;;3.96;84.21;98987.80;2227065;79;21098;-81
2021/04/16 15:47:41;;;;;;;34.40;23.23;;;;;;;3.86;85.33;98983.09;2226712;80;21130;-78
2021/04/16 15:50:42;;;;;;;41.60;27.13;;;;;;;3.86;85.26;98985.27;2226948;80;21133;-80
2021/04/16 15:53:43;;;;;;;36.60;24.97;;;;;;;3.86;85.44;98983.97;2226984;80;21364;-80
2021/04/16 15:56:44;;;;;;;29.67;21.10;;;;;;;3.87;85.46;98990.02;2227021;80;21105;-80
2021/04/16 15:59:45;;;;;;;28.47;22.63;;;;;;;3.83;85.58;98990.30;2227053;79;21102;-79
2021/04/16 16:02:46;;;;;;;29.97;23.77;;;;;;;3.81;85.71;98988.07;2226664;80;21097;-79
2021/04/16 16:05:47;;;;;;;30.03;21.17;;;;;;;3.79;85.71;98989.70;2227124;80;21129;-80
2021/04/16 16:08:54;;;;;;;33.03;21.53;;;;;;;3.80;85.81;98987.59;2227085;80;21090;-80
2021/04/16 16:11:51;;;;;;;24.20;19.97;;;;;;;3.77;85.75;98988.36;2226335;80;21116;-79
2021/04/16 16:14:52;;;;;;;29.40;20.57;;;;;;;3.75;85.69;98980.95;2227100;80;21113;-81
2021/04/16 16:17:53;;;;;;;38.60;26.47;;;;;;;3.73;85.97;98988.17;2227010;80;21075;-81
2021/04/16 16:20:54;;;;;;;26.07;22.00;;;;;;;3.72;85.82;98986.41;2226993;80;21386;-81
2021/04/16 16:23:55;;;;;;;37.70;24.33;;;;;;;3.71;86.22;98985.52;2234064;79;21113;-81
2021/04/16 16:26:56;;;;;;;36.97;24.37;;;;;;;3.71;86.27;98984.23;2258887;79;21132;-80
2021/04/16 16:29:58;;;;;;;36.77;25.07;;;;;;;3.71;86.04;98983.35;2259124;79;21215;-80